Arches Natl Park, Utah
Current Conditions -  °F | °C
As of 6:53 PM on Friday 28 Nov 2014 (Local Time) from KCNY Reporting Station
Clear Clear  
Wind Chill: 37°   Ceiling: Unl
Heat Index: 37°   Visibility: 10mi
Dew Point: 19°   Wind: 0mph
Humidity: 48%   Direction: NA
Pressure: 29.98"   Gusts: NA
Location:  38.7°N, 109.75°W
Report Text: KCNY 290153Z AUTO 00000KT 10SM CLR 03/M07 A2998 RMK AO2 SLP172 T00281072
Loading
Personal Weather Stations






























Interactive Weather Map New forecast layout! Learn more

10-Day Weather Forecast

Advertisements
Track Severe Weather on mobile